sensor_id;sensor_type;location;lat;lon;timestamp;pressure;altitude;pressure_sealevel;temperature;humidity
3160;BME280;1591;51.486;7.146;2022-10-04T00:02:18;71873.03;;;13.19;100.00
3160;BME280;1591;51.486;7.146;2022-10-04T00:04:53;71819.38;;;12.74;100.00
3160;BME280;1591;51.486;7.146;2022-10-04T00:07:27;71805.25;;;12.76;100.00
3160;BME280;1591;51.486;7.146;2022-10-04T00:09:58;71825.94;;;13.02;100.00
3160;BME280;1591;51.486;7.146;2022-10-04T00:12:31;71789.09;;;13.17;100.00
3160;BME280;1591;51.486;7.146;2022-10-04T00:15:01;71866.16;;;13.32;100.00
3160;BME280;1591;51.486;7.146;2022-10-04T00:17:31;71834.16;;;13.02;100.00
3160;BME280;1591;51.486;7.146;2022-10-04T00:23:28;71819.25;;;12.82;100.00
3160;BME280;1591;51.486;7.146;2022-10-04T00:25:57;71849.06;;;13.12;100.00
3160;BME280;1591;51.486;7.146;2022-10-04T00:28:40;71861.66;;;13.21;100.00
3160;BME280;1591;51.486;7.146;2022-10-04T00:31:21;71859.78;;;13.17;100.00
3160;BME280;1591;51.486;7.146;2022-10-04T00:33:53;71848.25;;;13.26;100.00
3160;BME280;1591;51.486;7.146;2022-10-04T00:36:54;71840.28;;;13.12;100.00
3160;BME280;1591;51.486;7.146;2022-10-04T00:39:42;71864.25;;;13.18;100.00
3160;BME280;1591;51.486;7.146;2022-10-04T00:42:45;71857.03;;;13.17;100.00
3160;BME280;1591;51.486;7.146;2022-10-04T00:45:34;71837.09;;;13.14;100.00
3160;BME280;1591;51.486;7.146;2022-10-04T00:48:33;71805.13;;;12.84;100.00
3160;BME280;1591;51.486;7.146;2022-10-04T00:51:18;71786.78;;;12.70;100.00
3160;BME280;1591;51.486;7.146;2022-10-04T00:54:09;71792.25;;;12.70;100.00
3160;BME280;1591;51.486;7.146;2022-10-04T00:56:43;71813.09;;;12.88;100.00
3160;BME280;1591;51.486;7.146;2022-10-04T00:59:30;71822.03;;;12.91;100.00
3160;BME280;1591;51.486;7.146;2022-10-04T01:02:03;71830.69;;;12.99;100.00
3160;BME280;1591;51.486;7.146;2022-10-04T01:04:38;71813.91;;;12.84;100.00
3160;BME280;1591;51.486;7.146;2022-10-04T01:07:09;71804.72;;;12.86;100.00
3160;BME280;1591;51.486;7.146;2022-10-04T01:09:48;71810.75;;;12.86;100.00
3160;BME280;1591;51.486;7.146;2022-10-04T01:12:32;71817.81;;;12.85;100.00
3160;BME280;1591;51.486;7.146;2022-10-04T01:15:06;71761.44;;;12.86;100.00
3160;BME280;1591;51.486;7.146;2022-10-04T01:17:34;71800.09;;;12.82;100.00
3160;BME280;1591;51.486;7.146;2022-10-04T01:20:02;71805.25;;;12.76;100.00
3160;BME280;1591;51.486;7.146;2022-10-04T01:22:37;71815.06;;;12.75;100.00
3160;BME280;1591;51.486;7.146;2022-10-04T01:25:06;71782.97;;;12.52;100.00
3160;BME280;1591;51.486;7.146;2022-10-04T01:27:39;71786.06;;;12.67;100.00
3160;BME280;1591;51.486;7.146;2022-10-04T01:30:09;71794.97;;;12.60;100.00
3160;BME280;1591;51.486;7.146;2022-10-04T01:32:38;71813.22;;;12.91;100.00
3160;BME280;1591;51.486;7.146;2022-10-04T01:35:08;71842.22;;;12.99;100.00
3160;BME280;1591;51.486;7.146;2022-10-04T01:37:38;71821.31;;;12.98;100.00
3160;BME280;1591;51.486;7.146;2022-10-04T01:40:07;71840.28;;;13.12;100.00
3160;BME280;1591;51.486;7.146;2022-10-04T01:42:40;71842.84;;;13.09;100.00
3160;BME280;1591;51.486;7.146;2022-10-04T01:45:17;71840.28;;;13.12;100.00
3160;BME280;1591;51.486;7.146;2022-10-04T01:47:52;71832.97;;;12.91;100.00
3160;BME280;1591;51.486;7.146;2022-10-04T01:50:29;71797.00;;;12.67;100.00
3160;BME280;1591;51.486;7.146;2022-10-04T01:53:08;71786.00;;;12.48;100.00
3160;BME280;1591;51.486;7.146;2022-10-04T01:55:40;71769.84;;;12.53;100.00
3160;BME280;1591;51.486;7.146;2022-10-04T01:58:14;71801.22;;;12.83;100.00
3160;BME280;1591;51.486;7.146;2022-10-04T02:00:48;71826.75;;;12.78;100.00
3160;BME280;1591;51.486;7.146;2022-10-04T02:03:20;71818.38;;;12.76;100.00
3160;BME280;1591;51.486;7.146;2022-10-04T02:05:53;71817.50;;;12.80;100.00
3160;BME280;1591;51.486;7.146;2022-10-04T02:08:27;71763.19;;;12.88;100.00
3160;BME280;1591;51.486;7.146;2022-10-04T02:10:56;71808.75;;;12.89;100.00
3160;BME280;1591;51.486;7.146;2022-10-04T02:13:26;71789.09;;;12.72;100.00
3160;BME280;1591;51.486;7.146;2022-10-04T02:15:55;71798.75;;;12.68;100.00
3160;BME280;1591;51.486;7.146;2022-10-04T02:18:24;71773.00;;;12.96;100.00
3160;BME280;1591;51.486;7.146;2022-10-04T02:20:53;71785.47;;;12.66;100.00
3160;BME280;1591;51.486;7.146;2022-10-04T02:23:23;71816.81;;;12.87;100.00
3160;BME280;1591;51.486;7.146;2022-10-04T02:25:50;71793.72;;;12.76;100.00
3160;BME280;1591;51.486;7.146;2022-10-04T02:28:18;71764.50;;;12.46;100.00
3160;BME280;1591;51.486;7.146;2022-10-04T02:30:48;71799.75;;;12.67;100.00
3160;BME280;1591;51.486;7.146;2022-10-04T02:33:30;71765.06;;;12.46;100.00
3160;BME280;1591;51.486;7.146;2022-10-04T02:35:58;71768.56;;;12.49;100.00
3160;BME280;1591;51.486;7.146;2022-10-04T02:38:32;71750.59;;;12.24;100.00
3160;BME280;1591;51.486;7.146;2022-10-04T02:41:04;71742.13;;;12.29;100.00
3160;BME280;1591;51.486;7.146;2022-10-04T02:43:35;71775.59;;;12.48;100.00
3160;BME280;1591;51.486;7.146;2022-10-04T02:46:08;71764.63;;;12.39;100.00
3160;BME280;1591;51.486;7.146;2022-10-04T02:48:44;71748.91;;;12.32;100.00
3160;BME280;1591;51.486;7.146;2022-10-04T02:51:20;71781.38;;;12.44;100.00
3160;BME280;1591;51.486;7.146;2022-10-04T02:54:00;71741.28;;;12.33;100.00
3160;BME280;1591;51.486;7.146;2022-10-04T02:56:29;71745.72;;;12.34;100.00
3160;BME280;1591;51.486;7.146;2022-10-04T02:59:01;71758.47;;;12.45;100.00
3160;BME280;1591;51.486;7.146;2022-10-04T03:01:41;71796.28;;;12.64;100.00
3160;BME280;1591;51.486;7.146;2022-10-04T03:04:13;71769.84;;;12.43;100.00
3160;BME280;1591;51.486;7.146;2022-10-04T03:06:41;71815.69;;;12.95;100.00
3160;BME280;1591;51.486;7.146;2022-10-04T03:09:11;71837.91;;;13.00;100.00
3160;BME280;1591;51.486;7.146;2022-10-04T03:11:40;71716.22;;;12.44;100.00
3160;BME280;1591;51.486;7.146;2022-10-04T03:14:13;71755.13;;;12.35;100.00
3160;BME280;1591;51.486;7.146;2022-10-04T03:16:43;71781.69;;;12.58;100.00
3160;BME280;1591;51.486;7.146;2022-10-04T03:19:12;71813.91;;;12.74;100.00
3160;BME280;1591;51.486;7.146;2022-10-04T03:21:43;71805.84;;;12.87;100.00
3160;BME280;1591;51.486;7.146;2022-10-04T03:24:17;71837.34;;;13.00;100.00
3160;BME280;1591;51.486;7.146;2022-10-04T03:26:47;71828.09;;;13.01;100.00
3160;BME280;1591;51.486;7.146;2022-10-04T03:29:17;71841.78;;;12.92;100.00
3160;BME280;1591;51.486;7.146;2022-10-04T03:31:48;71843.59;;;13.12;100.00
3160;BME280;1591;51.486;7.146;2022-10-04T03:34:19;71828.50;;;12.90;100.00
3160;BME280;1591;51.486;7.146;2022-10-04T03:36:48;71830.84;;;13.01;100.00
3160;BME280;1591;51.486;7.146;2022-10-04T03:39:26;71825.03;;;12.87;100.00
3160;BME280;1591;51.486;7.146;2022-10-04T03:41:53;71791.38;;;12.64;100.00
3160;BME280;1591;51.486;7.146;2022-10-04T03:44:24;71762.91;;;12.47;100.00
3160;BME280;1591;51.486;7.146;2022-10-04T03:46:52;71804.09;;;12.75;100.00
3160;BME280;1591;51.486;7.146;2022-10-04T03:49:30;71802.34;;;12.74;100.00
3160;BME280;1591;51.486;7.146;2022-10-04T03:51:59;71814.63;;;12.77;100.00
3160;BME280;1591;51.486;7.146;2022-10-04T03:54:30;71824.00;;;12.78;100.00
3160;BME280;1591;51.486;7.146;2022-10-04T03:56:59;71795.31;;;12.75;100.00
3160;BME280;1591;51.486;7.146;2022-10-04T03:59:28;71791.66;;;12.69;100.00
3160;BME280;1591;51.486;7.146;2022-10-04T04:02:06;71794.13;;;12.64;100.00
3160;BME280;1591;51.486;7.146;2022-10-04T04:04:44;71792.25;;;12.70;100.00
3160;BME280;1591;51.486;7.146;2022-10-04T04:07:20;71787.31;;;12.61;100.00
3160;BME280;1591;51.486;7.146;2022-10-04T04:09:58;71772.31;;;12.57;100.00
3160;BME280;1591;51.486;7.146;2022-10-04T04:12:37;71760.00;;;12.35;100.00
3160;BME280;1591;51.486;7.146;2022-10-04T04:15:08;71739.06;;;12.24;100.00
3160;BME280;1591;51.486;7.146;2022-10-04T04:17:40;71734.97;;;12.01;100.00
3160;BME280;1591;51.486;7.146;2022-10-04T04:20:21;71765.22;;;12.39;100.00
3160;BME280;1591;51.486;7.146;2022-10-04T04:23:01;71704.84;;;12.46;100.00
3160;BME280;1591;51.486;7.146;2022-10-04T04:25:34;71710.22;;;12.08;100.00
3160;BME280;1591;51.486;7.146;2022-10-04T04:28:12;71691.97;;;11.78;100.00
3160;BME280;1591;51.486;7.146;2022-10-04T04:30:47;71751.03;;;12.22;100.00
3160;BME280;1591;51.486;7.146;2022-10-04T04:33:24;71685.19;;;12.20;100.00
3160;BME280;1591;51.486;7.146;2022-10-04T04:35:54;71752.31;;;12.26;100.00
3160;BME280;1591;51.486;7.146;2022-10-04T04:38:24;71774.47;;;12.47;100.00
3160;BME280;1591;51.486;7.146;2022-10-04T04:40:53;71763.19;;;12.42;100.00
3160;BME280;1591;51.486;7.146;2022-10-04T04:43:23;71766.25;;;12.47;100.00
3160;BME280;1591;51.486;7.146;2022-10-04T04:45:51;71765.63;;;12.37;100.00
3160;BME280;1591;51.486;7.146;2022-10-04T04:48:20;71716.25;;;12.54;100.00
3160;BME280;1591;51.486;7.146;2022-10-04T04:50:52;71790.09;;;12.70;100.00
3160;BME280;1591;51.486;7.146;2022-10-04T04:53:22;71814.22;;;12.80;100.00
3160;BME280;1591;51.486;7.146;2022-10-04T04:55:56;71816.22;;;12.76;100.00
3160;BME280;1591;51.486;7.146;2022-10-04T04:58:27;71761.34;;;12.48;100.00
3160;BME280;1591;51.486;7.146;2022-10-04T05:01:00;71818.41;;;12.86;100.00
3160;BME280;1591;51.486;7.146;2022-10-04T05:03:29;71770.69;;;12.39;100.00
3160;BME280;1591;51.486;7.146;2022-10-04T05:05:58;71814.38;;;12.92;100.00
3160;BME280;1591;51.486;7.146;2022-10-04T05:08:29;71794.41;;;12.69;100.00
3160;BME280;1591;51.486;7.146;2022-10-04T05:11:03;71754.41;;;12.42;100.00
3160;BME280;1591;51.486;7.146;2022-10-04T05:13:37;71773.63;;;12.61;100.00
3160;BME280;1591;51.486;7.146;2022-10-04T05:16:12;71858.44;;;13.13;100.00
3160;BME280;1591;51.486;7.146;2022-10-04T05:18:40;71783.59;;;12.72;100.00
3160;BME280;1591;51.486;7.146;2022-10-04T05:21:13;71771.28;;;12.40;100.00
3160;BME280;1591;51.486;7.146;2022-10-04T05:23:43;71777.94;;;12.50;100.00
3160;BME280;1591;51.486;7.146;2022-10-04T05:26:12;71750.44;;;12.22;100.00
3160;BME280;1591;51.486;7.146;2022-10-04T05:28:40;71728.66;;;12.60;100.00
3160;BME280;1591;51.486;7.146;2022-10-04T05:31:34;71783.59;;;12.62;100.00
3160;BME280;1591;51.486;7.146;2022-10-04T05:34:18;71810.28;;;12.69;100.00
3160;BME280;1591;51.486;7.146;2022-10-04T05:39:56;71764.50;;;12.46;100.00
3160;BME280;1591;51.486;7.146;2022-10-04T05:42:36;71767.94;;;12.39;100.00
3160;BME280;1591;51.486;7.146;2022-10-04T05:45:16;71727.13;;;12.25;100.00
3160;BME280;1591;51.486;7.146;2022-10-04T05:47:44;71703.50;;;11.88;100.00
3160;BME280;1591;51.486;7.146;2022-10-04T05:50:17;71704.97;;;11.94;100.00
3160;BME280;1591;51.486;7.146;2022-10-04T05:52:48;71747.41;;;12.17;100.00
3160;BME280;1591;51.486;7.146;2022-10-04T05:55:24;71716.06;;;11.96;100.00
3160;BME280;1591;51.486;7.146;2022-10-04T05:58:29;71697.03;;;12.35;100.00
3160;BME280;1591;51.486;7.146;2022-10-04T06:01:20;71736.31;;;12.14;100.00
3160;BME280;1591;51.486;7.146;2022-10-04T06:04:25;71742.13;;;12.29;100.00
3160;BME280;1591;51.486;7.146;2022-10-04T06:07:00;71704.25;;;12.36;100.00
3160;BME280;1591;51.486;7.146;2022-10-04T06:09:48;71797.34;;;12.82;100.00
3160;BME280;1591;51.486;7.146;2022-10-04T06:12:30;71835.91;;;13.03;100.00
3160;BME280;1591;51.486;7.146;2022-10-04T06:21:29;71798.75;;;12.78;100.00
3160;BME280;1591;51.486;7.146;2022-10-04T06:24:01;71801.78;;;12.73;100.00
3160;BME280;1591;51.486;7.146;2022-10-04T06:26:37;71774.34;;;12.54;100.00
3160;BME280;1591;51.486;7.146;2022-10-04T06:29:10;71778.53;;;12.60;100.00
3160;BME280;1591;51.486;7.146;2022-10-04T06:32:05;71772.31;;;12.57;100.00
3160;BME280;1591;51.486;7.146;2022-10-04T06:35:21;71740.09;;;12.32;100.00
3160;BME280;1591;51.486;7.146;2022-10-04T06:41:38;71806.56;;;12.80;100.00
3160;BME280;1591;51.486;7.146;2022-10-04T06:47:36;71716.84;;;12.54;100.00
3160;BME280;1591;51.486;7.146;2022-10-04T06:50:23;71792.38;;;12.63;100.00
3160;BME280;1591;51.486;7.146;2022-10-04T06:53:05;71813.91;;;12.84;100.00
3160;BME280;1591;51.486;7.146;2022-10-04T06:55:59;71835.28;;;12.84;100.00
3160;BME280;1591;51.486;7.146;2022-10-04T06:59:17;71856.44;;;13.16;100.00
3160;BME280;1591;51.486;7.146;2022-10-04T07:01:49;71855.91;;;13.25;100.00
3160;BME280;1591;51.486;7.146;2022-10-04T07:04:32;71841.22;;;13.01;100.00
3160;BME280;1591;51.486;7.146;2022-10-04T07:07:16;71878.00;;;13.37;100.00
3160;BME280;1591;51.486;7.146;2022-10-04T07:09:56;71903.44;;;13.50;100.00
3160;BME280;1591;51.486;7.146;2022-10-04T07:12:27;71903.75;;;13.55;100.00
3160;BME280;1591;51.486;7.146;2022-10-04T07:14:57;71893.50;;;13.58;100.00
3160;BME280;1591;51.486;7.146;2022-10-04T07:17:31;71849.91;;;13.63;100.00
3160;BME280;1591;51.486;7.146;2022-10-04T07:20:05;71933.00;;;13.95;100.00
3160;BME280;1591;51.486;7.146;2022-10-04T07:22:38;71920.97;;;13.87;100.00
3160;BME280;1591;51.486;7.146;2022-10-04T07:25:14;71913.03;;;13.82;100.00
3160;BME280;1591;51.486;7.146;2022-10-04T07:27:51;71954.41;;;14.13;100.00
3160;BME280;1591;51.486;7.146;2022-10-04T07:30:44;71987.13;;;14.37;100.00
3160;BME280;1591;51.486;7.146;2022-10-04T07:33:16;71996.25;;;14.43;100.00
3160;BME280;1591;51.486;7.146;2022-10-04T07:35:47;71988.84;;;14.29;100.00
3160;BME280;1591;51.486;7.146;2022-10-04T07:38:23;71989.91;;;14.47;100.00
3160;BME280;1591;51.486;7.146;2022-10-04T07:41:07;72028.19;;;14.54;100.00
3160;BME280;1591;51.486;7.146;2022-10-04T07:43:45;71986.28;;;14.51;100.00
3160;BME280;1591;51.486;7.146;2022-10-04T07:46:20;72037.22;;;14.85;100.00
3160;BME280;1591;51.486;7.146;2022-10-04T07:48:48;72021.44;;;14.69;100.00
3160;BME280;1591;51.486;7.146;2022-10-04T07:51:27;72015.94;;;14.79;100.00
3160;BME280;1591;51.486;7.146;2022-10-04T07:54:01;72003.94;;;14.61;100.00
3160;BME280;1591;51.486;7.146;2022-10-04T07:56:34;72040.56;;;14.86;100.00
3160;BME280;1591;51.486;7.146;2022-10-04T07:59:21;72001.19;;;14.61;100.00
3160;BME280;1591;51.486;7.146;2022-10-04T08:02:00;72060.41;;;15.05;100.00
3160;BME280;1591;51.486;7.146;2022-10-04T08:04:43;72036.94;;;14.80;100.00
3160;BME280;1591;51.486;7.146;2022-10-04T08:07:20;72062.41;;;15.02;100.00
3160;BME280;1591;51.486;7.146;2022-10-04T08:09:59;72057.94;;;15.10;100.00
3160;BME280;1591;51.486;7.146;2022-10-04T08:12:42;72064.00;;;15.11;100.00
3160;BME280;1591;51.486;7.146;2022-10-04T08:15:35;72082.09;;;15.29;100.00
3160;BME280;1591;51.486;7.146;2022-10-04T08:18:26;72066.03;;;15.18;100.00
3160;BME280;1591;51.486;7.146;2022-10-04T08:21:01;72067.19;;;15.09;100.00
3160;BME280;1591;51.486;7.146;2022-10-04T08:23:43;72043.44;;;14.98;100.00
3160;BME280;1591;51.486;7.146;2022-10-04T08:26:42;72051.25;;;15.00;100.00
3160;BME280;1591;51.486;7.146;2022-10-04T08:29:38;72059.69;;;15.12;100.00
3160;BME280;1591;51.486;7.146;2022-10-04T08:32:22;72070.38;;;15.17;100.00
3160;BME280;1591;51.486;7.146;2022-10-04T08:35:18;72085.88;;;15.28;100.00
3160;BME280;1591;51.486;7.146;2022-10-04T08:38:39;72116.75;;;15.57;100.00
3160;BME280;1591;51.486;7.146;2022-10-04T08:41:35;72142.69;;;15.77;100.00
3160;BME280;1591;51.486;7.146;2022-10-04T08:55:06;72221.66;;;16.38;100.00
3160;BME280;1591;51.486;7.146;2022-10-04T08:58:04;72231.13;;;16.58;100.00
3160;BME280;1591;51.486;7.146;2022-10-04T09:00:53;72260.41;;;16.69;100.00
3160;BME280;1591;51.486;7.146;2022-10-04T09:07:02;72230.50;;;16.96;100.00
3160;BME280;1591;51.486;7.146;2022-10-04T09:10:20;72316.09;;;17.27;100.00
3160;BME280;1591;51.486;7.146;2022-10-04T09:13:25;72372.44;;;17.67;100.00
3160;BME280;1591;51.486;7.146;2022-10-04T09:16:13;72344.13;;;17.54;100.00
3160;BME280;1591;51.486;7.146;2022-10-04T09:19:21;72320.91;;;17.34;100.00
3160;BME280;1591;51.486;7.146;2022-10-04T09:22:16;72320.31;;;17.33;100.00
3160;BME280;1591;51.486;7.146;2022-10-04T09:28:34;72358.78;;;17.69;100.00
3160;BME280;1591;51.486;7.146;2022-10-04T09:34:14;72366.91;;;17.67;100.00
3160;BME280;1591;51.486;7.146;2022-10-04T09:37:21;72386.63;;;17.93;100.00
3160;BME280;1591;51.486;7.146;2022-10-04T09:40:34;72377.78;;;17.93;100.00
3160;BME280;1591;51.486;7.146;2022-10-04T09:46:17;72390.25;;;17.99;100.00
3160;BME280;1591;51.486;7.146;2022-10-04T09:48:57;72421.72;;;18.28;100.00
3160;BME280;1591;51.486;7.146;2022-10-04T09:51:58;72417.84;;;18.18;100.00
3160;BME280;1591;51.486;7.146;2022-10-04T09:54:50;72412.44;;;18.20;100.00
3160;BME280;1591;51.486;7.146;2022-10-04T09:57:29;72402.00;;;18.02;100.00
3160;BME280;1591;51.486;7.146;2022-10-04T10:00:18;72380.22;;;17.97;100.00
3160;BME280;1591;51.486;7.146;2022-10-04T10:03:35;72420.03;;;18.17;100.00
3160;BME280;1591;51.486;7.146;2022-10-04T10:06:36;72466.97;;;18.37;100.00
3160;BME280;1591;51.486;7.146;2022-10-04T10:09:23;72490.47;;;18.81;100.00
3160;BME280;1591;51.486;7.146;2022-10-04T10:12:42;72480.31;;;18.67;100.00
3160;BME280;1591;51.486;7.146;2022-10-04T10:15:34;72423.75;;;18.35;100.00
3160;BME280;1591;51.486;7.146;2022-10-04T10:18:15;72406.94;;;18.11;100.00
3160;BME280;1591;51.486;7.146;2022-10-04T10:21:10;72396.06;;;18.04;100.00
3160;BME280;1591;51.486;7.146;2022-10-04T10:24:00;72406.66;;;18.06;100.00
3160;BME280;1591;51.486;7.146;2022-10-04T10:26:48;72410.75;;;18.09;100.00
3160;BME280;1591;51.486;7.146;2022-10-04T10:29:52;72399.97;;;18.05;100.00
3160;BME280;1591;51.486;7.146;2022-10-04T10:36:08;72392.72;;;18.03;100.00
3160;BME280;1591;51.486;7.146;2022-10-04T10:39:03;72424.34;;;18.36;100.00
3160;BME280;1591;51.486;7.146;2022-10-04T10:41:55;72403.91;;;18.06;100.00
3160;BME280;1591;51.486;7.146;2022-10-04T10:45:03;72427.41;;;18.31;100.00
3160;BME280;1591;51.486;7.146;2022-10-04T10:47:43;72445.56;;;18.49;100.00
3160;BME280;1591;51.486;7.146;2022-10-04T10:50:42;72487.50;;;18.88;100.00
3160;BME280;1591;51.486;7.146;2022-10-04T10:54:25;72428.72;;;18.35;100.00
3160;BME280;1591;51.486;7.146;2022-10-04T10:57:10;72475.94;;;18.68;100.00
3160;BME280;1591;51.486;7.146;2022-10-04T11:00:19;72477.38;;;18.74;100.00
3160;BME280;1591;51.486;7.146;2022-10-04T11:03:22;72495.72;;;18.76;100.00
3160;BME280;1591;51.486;7.146;2022-10-04T11:06:28;72515.56;;;19.05;100.00
3160;BME280;1591;51.486;7.146;2022-10-04T11:09:30;72505.97;;;19.01;100.00
3160;BME280;1591;51.486;7.146;2022-10-04T11:12:39;72512.38;;;19.07;100.00
3160;BME280;1591;51.486;7.146;2022-10-04T11:15:40;72496.66;;;18.93;100.00
3160;BME280;1591;51.486;7.146;2022-10-04T11:19:11;72493.97;;;18.74;100.00
3160;BME280;1591;51.486;7.146;2022-10-04T11:22:27;72515.72;;;19.08;100.00
3160;BME280;1591;51.486;7.146;2022-10-04T11:25:55;72499.00;;;18.95;100.00
3160;BME280;1591;51.486;7.146;2022-10-04T11:28:30;72492.16;;;18.92;100.00
3160;BME280;1591;51.486;7.146;2022-10-04T11:31:42;72499.63;;;18.86;100.00
3160;BME280;1591;51.486;7.146;2022-10-04T11:35:16;72493.78;;;18.91;100.00
3160;BME280;1591;51.486;7.146;2022-10-04T11:38:08;72505.69;;;18.96;100.00
3160;BME280;1591;51.486;7.146;2022-10-04T11:41:12;72511.06;;;19.03;100.00
3160;BME280;1591;51.486;7.146;2022-10-04T11:44:04;72502.19;;;19.03;100.00
3160;BME280;1591;51.486;7.146;2022-10-04T11:46:46;72504.22;;;19.00;100.00
3160;BME280;1591;51.486;7.146;2022-10-04T11:49:41;72556.69;;;19.48;100.00
3160;BME280;1591;51.486;7.146;2022-10-04T11:56:21;72406.66;;;18.06;100.00
3160;BME280;1591;51.486;7.146;2022-10-04T11:59:10;72394.63;;;17.98;100.00
3160;BME280;1591;51.486;7.146;2022-10-04T12:01:59;72491.31;;;18.86;100.00
3160;BME280;1591;51.486;7.146;2022-10-04T12:05:01;72549.13;;;19.41;100.00
3160;BME280;1591;51.486;7.146;2022-10-04T12:07:51;72593.59;;;19.75;100.00
3160;BME280;1591;51.486;7.146;2022-10-04T12:10:26;72628.34;;;20.03;100.00
3160;BME280;1591;51.486;7.146;2022-10-04T12:13:40;72638.06;;;20.18;100.00
3160;BME280;1591;51.486;7.146;2022-10-04T12:16:58;72664.22;;;20.41;100.00
3160;BME280;1591;51.486;7.146;2022-10-04T12:19:47;72663.41;;;20.35;99.08
3160;BME280;1591;51.486;7.146;2022-10-04T12:22:44;72679.28;;;20.42;99.95
3160;BME280;1591;51.486;7.146;2022-10-04T12:25:46;72660.75;;;20.38;100.00
3160;BME280;1591;51.486;7.146;2022-10-04T12:28:50;72670.84;;;20.30;100.00
3160;BME280;1591;51.486;7.146;2022-10-04T12:31:24;72667.00;;;20.41;100.00
3160;BME280;1591;51.486;7.146;2022-10-04T12:34:06;72676.75;;;20.47;98.13
3160;BME280;1591;51.486;7.146;2022-10-04T12:36:59;72735.81;;;20.93;96.25
3160;BME280;1591;51.486;7.146;2022-10-04T12:39:47;72723.13;;;20.94;94.95
3160;BME280;1591;51.486;7.146;2022-10-04T12:42:28;72712.06;;;20.85;89.73
3160;BME280;1591;51.486;7.146;2022-10-04T12:45:33;72735.50;;;20.98;90.25
3160;BME280;1591;51.486;7.146;2022-10-04T12:48:35;72747.88;;;21.11;91.16
3160;BME280;1591;51.486;7.146;2022-10-04T12:51:20;72727.63;;;20.96;94.37
3160;BME280;1591;51.486;7.146;2022-10-04T12:54:00;72727.63;;;20.96;92.78
3160;BME280;1591;51.486;7.146;2022-10-04T12:56:44;72750.81;;;21.13;90.74
3160;BME280;1591;51.486;7.146;2022-10-04T12:59:32;72780.59;;;21.42;92.34
3160;BME280;1591;51.486;7.146;2022-10-04T13:02:19;72770.69;;;21.33;86.77
3160;BME280;1591;51.486;7.146;2022-10-04T13:04:51;72757.19;;;21.19;82.42
3160;BME280;1591;51.486;7.146;2022-10-04T13:07:42;72767.53;;;21.25;86.84
3160;BME280;1591;51.486;7.146;2022-10-04T13:10:29;72767.94;;;21.33;82.90
3160;BME280;1591;51.486;7.146;2022-10-04T13:13:39;72773.03;;;21.35;83.59
3160;BME280;1591;51.486;7.146;2022-10-04T13:16:15;72776.31;;;21.45;77.56
3160;BME280;1591;51.486;7.146;2022-10-04T13:18:56;72662.50;;;20.39;80.09
3160;BME280;1591;51.486;7.146;2022-10-04T13:25:00;72621.34;;;20.06;83.22
3160;BME280;1591;51.486;7.146;2022-10-04T13:27:36;72612.47;;;19.96;81.37
3160;BME280;1591;51.486;7.146;2022-10-04T13:30:15;72641.28;;;20.16;81.34
3160;BME280;1591;51.486;7.146;2022-10-04T13:32:59;72646.78;;;20.26;82.26
3160;BME280;1591;51.486;7.146;2022-10-04T13:35:34;72659.13;;;20.39;81.66
3160;BME280;1591;51.486;7.146;2022-10-04T13:38:45;72687.53;;;20.51;81.34
3160;BME280;1591;51.486;7.146;2022-10-04T13:41:30;72637.22;;;20.13;78.53
3160;BME280;1591;51.486;7.146;2022-10-04T13:44:28;72693.63;;;20.62;80.01
3160;BME280;1591;51.486;7.146;2022-10-04T13:47:32;72708.88;;;20.77;78.14
3160;BME280;1591;51.486;7.146;2022-10-04T13:53:19;72688.22;;;20.64;76.21
3160;BME280;1591;51.486;7.146;2022-10-04T13:59:37;72679.22;;;20.51;77.45
3160;BME280;1591;51.486;7.146;2022-10-04T14:02:45;72671.78;;;20.47;78.97
3160;BME280;1591;51.486;7.146;2022-10-04T14:05:57;72665.97;;;20.42;79.18
3160;BME280;1591;51.486;7.146;2022-10-04T14:09:02;72640.09;;;20.15;81.55
3160;BME280;1591;51.486;7.146;2022-10-04T14:12:06;72656.81;;;20.37;81.18
3160;BME280;1591;51.486;7.146;2022-10-04T14:15:24;72666.88;;;20.38;83.44
3160;BME280;1591;51.486;7.146;2022-10-04T14:18:40;72644.19;;;20.19;83.60
3160;BME280;1591;51.486;7.146;2022-10-04T14:21:49;72637.78;;;20.13;82.69
3160;BME280;1591;51.486;7.146;2022-10-04T14:31:30;72628.47;;;20.05;88.87
3160;BME280;1591;51.486;7.146;2022-10-04T14:34:31;72619.47;;;20.02;87.01
3160;BME280;1591;51.486;7.146;2022-10-04T14:40:48;72641.84;;;20.17;83.79
3160;BME280;1591;51.486;7.146;2022-10-04T14:47:05;72654.78;;;20.30;85.42
3160;BME280;1591;51.486;7.146;2022-10-04T14:49:52;72647.09;;;20.21;84.37
3160;BME280;1591;51.486;7.146;2022-10-04T14:52:37;72643.31;;;20.23;85.31
3160;BME280;1591;51.486;7.146;2022-10-04T14:55:31;72646.78;;;20.26;87.19
3160;BME280;1591;51.486;7.146;2022-10-04T14:58:15;72647.81;;;20.24;86.00
3160;BME280;1591;51.486;7.146;2022-10-04T15:01:14;72629.34;;;20.11;86.21
3160;BME280;1591;51.486;7.146;2022-10-04T15:04:05;72611.75;;;19.93;86.98
3160;BME280;1591;51.486;7.146;2022-10-04T15:06:48;72593.03;;;19.74;90.51
3160;BME280;1591;51.486;7.146;2022-10-04T15:09:48;72604.25;;;19.77;90.29
3160;BME280;1591;51.486;7.146;2022-10-04T15:13:00;72610.31;;;19.87;91.43
3160;BME280;1591;51.486;7.146;2022-10-04T15:15:51;72602.03;;;19.77;92.53
3160;BME280;1591;51.486;7.146;2022-10-04T15:18:47;72566.53;;;19.56;96.55
3160;BME280;1591;51.486;7.146;2022-10-04T15:21:42;72569.06;;;19.51;98.44
3160;BME280;1591;51.486;7.146;2022-10-04T15:24:28;72552.59;;;19.44;99.70
3160;BME280;1591;51.486;7.146;2022-10-04T15:27:37;72556.41;;;19.43;99.03
3160;BME280;1591;51.486;7.146;2022-10-04T15:30:27;72542.00;;;19.33;100.00
3160;BME280;1591;51.486;7.146;2022-10-04T15:33:32;72533.84;;;19.26;100.00
3160;BME280;1591;51.486;7.146;2022-10-04T15:40:02;72474.63;;;18.74;100.00
3160;BME280;1591;51.486;7.146;2022-10-04T15:42:36;72480.41;;;18.79;100.00
3160;BME280;1591;51.486;7.146;2022-10-04T15:45:28;72484.59;;;18.85;100.00
3160;BME280;1591;51.486;7.146;2022-10-04T15:48:46;72466.47;;;18.67;100.00
3160;BME280;1591;51.486;7.146;2022-10-04T15:51:23;72437.28;;;18.40;100.00
3160;BME280;1591;51.486;7.146;2022-10-04T15:57:26;72435.09;;;18.40;100.00
3160;BME280;1591;51.486;7.146;2022-10-04T16:00:04;72432.38;;;18.31;100.00
3160;BME280;1591;51.486;7.146;2022-10-04T16:03:07;72455.31;;;18.55;100.00
3160;BME280;1591;51.486;7.146;2022-10-04T16:05:46;72472.59;;;18.68;100.00